TimePST,TemperatureF,Dew PointF,Humidity,Sea Level PressureIn,VisibilityMPH,Wind Direction,Wind SpeedMPH,Gust SpeedMPH,PrecipitationIn,Events,Conditions,WindDirDegrees,DateUTC
12:08 AM,39.2,37.4,93,30.10,10.0,Calm,Calm,-,0.00,Rain,Light Rain,0,2012-12-05 08:08:00
12:40 AM,39.2,39.2,100,30.10,7.0,Calm,Calm,-,0.02,Rain,Light Rain,0,2012-12-05 08:40:00
12:50 AM,39.2,39.2,100,30.10,8.0,South,4.6,-,0.04,Rain,Light Rain,180,2012-12-05 08:50:00
12:55 AM,39.9,39.0,97,30.09,8.0,Calm,Calm,-,0.05,Rain,Light Rain,0,2012-12-05 08:55:00
1:53 AM,42.8,39.2,87,30.10,10.0,South,9.2,-,0.01,Rain,Light Rain,170,2012-12-05 09:53:00
1:55 AM,43.0,39.9,89,30.08,10.0,South,8.1,-,0.01,Rain,Light Rain,170,2012-12-05 09:55:00
2:55 AM,41.0,39.9,96,30.12,10.0,West,4.6,-,0.02,Rain,Light Rain,280,2012-12-05 10:55:00
4:55 AM,39.9,37.9,93,30.14,10.0,Calm,Calm,-,0.00,,Overcast,0,2012-12-05 12:55:00
6:55 AM,39.9,39.0,97,30.14,10.0,Calm,Calm,-,N/A,,Overcast,0,2012-12-05 14:55:00
7:55 AM,39.9,39.0,97,30.15,10.0,West,3.5,-,N/A,,Overcast,280,2012-12-05 15:55:00
8:55 AM,42.1,39.9,92,30.16,10.0,WSW,3.5,-,N/A,,Overcast,240,2012-12-05 16:55:00
9:55 AM,43.0,41.0,93,30.19,10.0,West,8.1,-,N/A,,Overcast,260,2012-12-05 17:55:00
10:16 AM,42.8,41.0,93,30.17,10.0,West,9.2,-,N/A,,Mostly Cloudy,260,2012-12-05 18:16:00
11:55 AM,46.0,42.1,86,30.17,10.0,West,5.8,-,N/A,,Overcast,280,2012-12-05 19:55:00
12:55 PM,46.9,42.1,83,30.14,10.0,West,3.5,-,N/A,,Overcast,280,2012-12-05 20:55:00
1:55 PM,50.0,42.1,74,30.11,10.0,West,5.8,-,N/A,,Scattered Clouds,280,2012-12-05 21:55:00
2:55 PM,48.0,41.0,77,30.12,10.0,WSW,3.5,-,N/A,,Mostly Cloudy,240,2012-12-05 22:55:00
3:55 PM,46.9,41.0,80,30.12,10.0,West,5.8,-,N/A,,Mostly Cloudy,270,2012-12-05 23:55:00
4:55 PM,42.1,37.9,85,30.14,10.0,WSW,3.5,-,N/A,,Scattered Clouds,250,2012-12-06 00:55:00
5:55 PM,39.0,37.0,93,30.15,10.0,SSW,3.5,-,N/A,,Mostly Cloudy,210,2012-12-06 01:55:00
6:55 PM,37.0,36.0,96,30.16,6.0,Calm,Calm,-,N/A,,Scattered Clouds,0,2012-12-06 02:55:00
7:55 PM,33.1,32.0,96,30.17,6.0,Calm,Calm,-,N/A,,Partly Cloudy,0,2012-12-06 03:55:00
8:29 PM,33.8,33.8,100,30.14,2.0,Calm,Calm,-,N/A,,Clear,0,2012-12-06 04:29:00
8:42 PM,33.8,32.0,93,30.15,1.2,East,4.6,-,N/A,,Clear,80,2012-12-06 04:42:00
8:50 PM,33.8,32.0,93,30.15,1.2,ESE,4.6,-,N/A,,Scattered Clouds,110,2012-12-06 04:50:00
8:55 PM,33.1,32.0,96,30.17,1.0,East,3.5,-,N/A,,Mist,80,2012-12-06 04:55:00
9:05 PM,32.0,30.2,93,30.14,1.2,Calm,Calm,-,N/A,,Partly Cloudy,0,2012-12-06 05:05:00
9:24 PM,28.4,28.4,100,30.15,0.2,Calm,Calm,-,N/A,Fog,Light Freezing Fog,0,2012-12-06 05:24:00
9:55 PM,28.9,28.0,96,30.17,0.2,Calm,Calm,-,N/A,Fog,Light Freezing Fog,0,2012-12-06 05:55:00
10:33 PM,28.4,28.4,100,30.14,1.2,Calm,Calm,-,N/A,,Scattered Clouds,0,2012-12-06 06:33:00
10:55 PM,27.0,27.0,100,30.17,2.5,Calm,Calm,-,N/A,,Partly Cloudy,0,2012-12-06 06:55:00
11:02 PM,26.6,26.6,100,30.14,6.0,Calm,Calm,-,N/A,,Mostly Cloudy,0,2012-12-06 07:02:00
11:15 PM,26.6,26.6,100,30.14,1.8,Calm,Calm,-,N/A,,Mostly Cloudy,0,2012-12-06 07:15:00
11:24 PM,28.4,26.6,93,30.14,0.2,SE,3.5,-,N/A,Fog,Light Freezing Fog,130,2012-12-06 07:24:00
11:44 PM,28.4,28.4,100,30.14,1.2,East,4.6,-,N/A,,Scattered Clouds,80,2012-12-06 07:44:00
11:48 PM,30.2,28.4,93,30.13,3.0,East,4.6,-,N/A,,Scattered Clouds,90,2012-12-06 07:48:00
11:55 PM,27.0,27.0,100,30.16,2.5,Calm,Calm,-,N/A,,Partly Cloudy,0,2012-12-06 07:55:00
11:59 PM,26.6,26.6,100,30.13,1.0,Calm,Calm,-,N/A,,Mist,0,2012-12-06 07:59:00